createdAt,value
2022-10-20T00:02:03.892Z,8.40
2022-10-20T00:04:35.668Z,8.30
2022-10-20T00:07:07.368Z,8.30
2022-10-20T00:09:39.107Z,8.30
2022-10-20T00:12:10.872Z,8.20
2022-10-20T00:14:42.599Z,8.20
2022-10-20T00:17:14.350Z,8.20
2022-10-20T00:19:48.379Z,8.20
2022-10-20T00:22:20.111Z,8.10
2022-10-20T00:24:52.282Z,8.10
2022-10-20T00:27:24.010Z,8.10
2022-10-20T00:29:55.722Z,8.10
2022-10-20T00:32:27.672Z,8.10
2022-10-20T00:34:59.444Z,8.10
2022-10-20T00:37:31.190Z,8.00
2022-10-20T00:40:03.012Z,8.00
2022-10-20T00:42:34.914Z,8.00
2022-10-20T00:45:14.245Z,7.90
2022-10-20T00:48:06.675Z,7.90
2022-10-20T00:50:43.491Z,7.90
2022-10-20T00:53:17.197Z,7.90
2022-10-20T00:55:51.076Z,7.90
2022-10-20T00:58:23.078Z,7.90
2022-10-20T01:00:57.858Z,7.90
2022-10-20T01:03:41.989Z,7.90
2022-10-20T01:08:53.054Z,7.80
2022-10-20T01:11:52.482Z,7.70
2022-10-20T01:14:26.949Z,7.60
2022-10-20T01:17:10.231Z,7.60
2022-10-20T01:20:15.548Z,7.60
2022-10-20T01:23:12.839Z,7.50
2022-10-20T01:25:56.235Z,7.50
2022-10-20T01:28:50.386Z,7.50
2022-10-20T01:31:42.342Z,7.40
2022-10-20T01:34:55.023Z,7.40
2022-10-20T01:37:48.948Z,7.40
2022-10-20T01:40:29.070Z,7.30
2022-10-20T01:43:05.824Z,7.30
2022-10-20T01:45:42.088Z,7.30
2022-10-20T01:48:17.412Z,7.20
2022-10-20T01:50:50.627Z,7.20
2022-10-20T01:53:22.348Z,7.20
2022-10-20T01:55:56.323Z,7.20
2022-10-20T01:59:02.083Z,7.20
2022-10-20T02:02:01.653Z,7.20
2022-10-20T02:05:05.554Z,7.20
2022-10-20T02:07:38.252Z,7.20
2022-10-20T02:10:27.457Z,7.20
2022-10-20T02:13:04.200Z,7.20
2022-10-20T02:15:40.784Z,7.20
2022-10-20T02:18:16.531Z,7.20
2022-10-20T02:20:51.575Z,7.20
2022-10-20T02:23:23.725Z,7.20
2022-10-20T02:25:57.282Z,7.20
2022-10-20T02:28:30.844Z,7.20
2022-10-20T02:31:03.995Z,7.20
2022-10-20T02:33:36.151Z,7.20
2022-10-20T02:36:15.594Z,7.10
2022-10-20T02:38:47.549Z,7.10
2022-10-20T02:41:19.329Z,7.00
2022-10-20T02:43:51.047Z,6.90
2022-10-20T02:46:23.379Z,6.70
2022-10-20T02:48:55.084Z,6.60
2022-10-20T02:51:26.875Z,6.60
2022-10-20T02:53:58.560Z,6.50
2022-10-20T02:56:31.108Z,6.50
2022-10-20T02:59:03.075Z,6.40
2022-10-20T03:01:34.807Z,6.40
2022-10-20T03:04:06.569Z,6.30
2022-10-20T03:06:38.459Z,6.30
2022-10-20T03:09:10.341Z,6.30
2022-10-20T03:11:42.042Z,6.40
2022-10-20T03:14:13.810Z,6.40
2022-10-20T03:16:45.532Z,6.40
2022-10-20T03:19:17.312Z,6.40
2022-10-20T03:21:49.633Z,6.40
2022-10-20T03:24:21.335Z,6.40
2022-10-20T03:26:53.044Z,6.40
2022-10-20T03:29:24.762Z,6.40
2022-10-20T03:31:56.566Z,6.40
2022-10-20T03:34:28.339Z,6.40
2022-10-20T03:37:00.234Z,6.30
2022-10-20T03:39:32.012Z,6.30
2022-10-20T03:42:03.887Z,6.30
2022-10-20T03:44:35.587Z,6.20
2022-10-20T03:47:07.648Z,6.10
2022-10-20T03:49:39.560Z,6.10
2022-10-20T03:52:11.266Z,6.00
2022-10-20T03:54:43.007Z,6.00
2022-10-20T03:57:14.768Z,6.00
2022-10-20T03:59:46.733Z,6.00
2022-10-20T04:02:45.722Z,6.10
2022-10-20T04:05:20.060Z,6.10
2022-10-20T04:07:51.788Z,6.20
2022-10-20T04:10:23.564Z,6.20
2022-10-20T04:12:58.229Z,6.20
2022-10-20T04:15:30.761Z,6.20
2022-10-20T04:18:02.446Z,6.20
2022-10-20T04:20:34.157Z,6.20
2022-10-20T04:23:05.857Z,6.20
2022-10-20T04:25:40.791Z,6.20
2022-10-20T04:28:13.429Z,6.20
2022-10-20T04:30:46.507Z,6.10
2022-10-20T04:33:18.228Z,6.10
2022-10-20T04:38:22.616Z,6.10
2022-10-20T04:40:58.092Z,6.20
2022-10-20T04:43:33.590Z,6.20
2022-10-20T04:46:08.430Z,6.20
2022-10-20T04:48:43.363Z,6.30
2022-10-20T04:51:16.204Z,6.30
2022-10-20T04:53:48.062Z,6.30
2022-10-20T04:56:21.328Z,6.30
2022-10-20T04:58:55.815Z,6.40
2022-10-20T05:01:29.446Z,6.40
2022-10-20T05:04:01.211Z,6.40
2022-10-20T05:06:33.696Z,6.40
2022-10-20T05:09:06.936Z,6.40
2022-10-20T05:11:38.780Z,6.30
2022-10-20T05:14:10.543Z,6.30
2022-10-20T05:16:42.302Z,6.20
2022-10-20T05:19:13.983Z,6.10
2022-10-20T05:21:45.839Z,6.00
2022-10-20T05:24:21.331Z,5.90
2022-10-20T05:26:54.506Z,5.90
2022-10-20T05:29:26.243Z,5.90
2022-10-20T05:31:57.944Z,5.90
2022-10-20T05:34:29.764Z,6.00
2022-10-20T05:37:01.576Z,6.00
2022-10-20T05:39:33.357Z,6.00
2022-10-20T05:42:05.191Z,6.00
2022-10-20T05:44:37.443Z,6.00
2022-10-20T05:47:09.158Z,6.00
2022-10-20T05:49:40.858Z,5.90
2022-10-20T05:52:12.549Z,5.90
2022-10-20T05:54:44.261Z,5.90
2022-10-20T05:57:15.990Z,5.80
2022-10-20T05:59:47.948Z,5.80
2022-10-20T06:02:20.816Z,5.80
2022-10-20T06:04:52.508Z,5.80
2022-10-20T06:07:24.260Z,5.80
2022-10-20T06:09:55.967Z,5.80
2022-10-20T06:12:27.695Z,5.80
2022-10-20T06:14:59.388Z,5.80
2022-10-20T06:17:31.094Z,5.80
2022-10-20T06:20:03.466Z,5.80
2022-10-20T06:22:35.692Z,5.80
2022-10-20T06:25:08.152Z,5.80
2022-10-20T06:27:39.855Z,5.00
2022-10-20T06:30:11.846Z,5.80
2022-10-20T06:32:43.583Z,5.80
2022-10-20T06:35:15.355Z,5.80
2022-10-20T06:37:47.062Z,5.90
2022-10-20T06:40:18.788Z,6.00
2022-10-20T06:42:50.592Z,6.00
2022-10-20T06:45:22.327Z,6.10
2022-10-20T06:47:54.050Z,6.20
2022-10-20T06:50:25.809Z,6.30
2022-10-20T06:52:57.538Z,6.40
2022-10-20T06:55:29.306Z,6.40
2022-10-20T06:58:01.137Z,6.40
2022-10-20T07:00:32.850Z,6.50
2022-10-20T07:03:04.588Z,6.50
2022-10-20T07:05:36.280Z,6.50
2022-10-20T07:08:07.985Z,6.60
2022-10-20T07:10:39.693Z,6.60
2022-10-20T07:13:11.403Z,6.80
2022-10-20T07:15:43.099Z,6.90
2022-10-20T07:18:15.242Z,6.90
2022-10-20T07:20:47.037Z,6.90
2022-10-20T07:23:18.871Z,6.90
2022-10-20T07:25:50.613Z,7.00
2022-10-20T07:28:22.411Z,7.10
2022-10-20T07:30:54.107Z,7.20
2022-10-20T07:33:25.813Z,7.30
2022-10-20T07:35:57.732Z,7.50
2022-10-20T07:38:29.428Z,7.60
2022-10-20T07:41:02.914Z,7.80
2022-10-20T07:43:35.648Z,7.90
2022-10-20T07:46:08.213Z,8.10
2022-10-20T07:48:40.523Z,8.30
2022-10-20T07:51:28.308Z,8.50
2022-10-20T07:54:07.262Z,8.70
2022-10-20T07:56:41.608Z,8.90
2022-10-20T07:59:14.228Z,9.10
2022-10-20T08:01:46.677Z,9.40
2022-10-20T08:04:18.447Z,9.70
2022-10-20T08:06:50.165Z,10.00
2022-10-20T08:09:21.889Z,10.20
2022-10-20T08:11:55.556Z,10.50
2022-10-20T08:14:31.741Z,10.70
2022-10-20T08:17:04.177Z,10.70
2022-10-20T08:19:42.865Z,10.80
2022-10-20T08:22:16.053Z,13.20
2022-10-20T08:24:47.854Z,11.00
2022-10-20T08:27:19.629Z,11.10
2022-10-20T08:30:00.302Z,11.20
2022-10-20T08:32:43.229Z,11.30
2022-10-20T08:35:14.939Z,11.40
2022-10-20T08:37:46.648Z,11.30
2022-10-20T08:40:25.365Z,11.40
2022-10-20T08:42:57.470Z,11.50
2022-10-20T08:45:29.378Z,11.70
2022-10-20T08:48:02.404Z,11.90
2022-10-20T08:50:34.424Z,12.00
2022-10-20T08:53:06.221Z,12.10
2022-10-20T08:55:38.143Z,12.30
2022-10-20T08:58:21.160Z,12.20
2022-10-20T09:00:59.479Z,12.10
2022-10-20T09:03:33.249Z,12.00
2022-10-20T09:06:14.034Z,12.00
2022-10-20T09:08:46.951Z,12.00
2022-10-20T09:11:25.592Z,12.00
2022-10-20T09:13:57.403Z,12.10
2022-10-20T09:16:42.111Z,12.30
2022-10-20T09:19:22.316Z,12.50
2022-10-20T09:21:58.628Z,12.60
2022-10-20T09:24:31.738Z,12.60
2022-10-20T09:27:29.750Z,12.50
2022-10-20T09:30:30.435Z,12.60
2022-10-20T09:33:25.907Z,12.60
2022-10-20T09:36:14.676Z,12.60
2022-10-20T09:38:51.646Z,12.70
2022-10-20T09:41:30.780Z,12.90
2022-10-20T09:44:07.971Z,12.90
2022-10-20T09:46:45.396Z,13.10
2022-10-20T09:49:33.805Z,13.20
2022-10-20T09:52:22.045Z,13.20
2022-10-20T09:55:00.527Z,13.30
2022-10-20T09:57:32.600Z,13.40
2022-10-20T10:00:25.224Z,13.60
2022-10-20T10:03:14.688Z,13.60
2022-10-20T10:05:48.748Z,13.50
2022-10-20T10:08:22.738Z,13.40
2022-10-20T10:11:05.873Z,13.40
2022-10-20T10:13:44.407Z,13.20
2022-10-20T10:16:19.419Z,13.20
2022-10-20T10:19:16.874Z,13.30
2022-10-20T10:21:53.837Z,13.30
2022-10-20T10:24:46.374Z,13.30
2022-10-20T10:27:38.430Z,13.30
2022-10-20T10:30:30.647Z,13.40
2022-10-20T10:33:02.591Z,13.60
2022-10-20T10:35:44.204Z,13.70
2022-10-20T10:38:15.980Z,13.90
2022-10-20T10:41:08.607Z,13.90
2022-10-20T10:44:04.730Z,13.90
2022-10-20T10:47:01.707Z,13.90
2022-10-20T10:50:00.373Z,14.00
2022-10-20T10:52:39.706Z,14.00
2022-10-20T10:55:47.117Z,14.10
2022-10-20T10:58:31.502Z,14.20
2022-10-20T11:01:05.971Z,14.30
2022-10-20T11:04:15.269Z,14.40
2022-10-20T11:07:17.979Z,14.40
2022-10-20T11:10:03.271Z,14.50
2022-10-20T11:12:58.160Z,14.60
2022-10-20T11:16:00.075Z,14.60
2022-10-20T11:18:53.024Z,14.50
2022-10-20T11:21:58.806Z,14.40
2022-10-20T11:24:55.503Z,14.50
2022-10-20T11:27:33.737Z,14.70
2022-10-20T11:30:18.246Z,14.70
2022-10-20T11:33:19.627Z,14.80
2022-10-20T11:35:54.079Z,14.80
2022-10-20T11:38:49.830Z,14.90
2022-10-20T11:41:27.640Z,14.50
2022-10-20T11:44:12.302Z,15.30
2022-10-20T11:47:02.780Z,15.20
2022-10-20T11:49:34.747Z,15.10
2022-10-20T11:52:29.393Z,15.00
2022-10-20T11:55:20.028Z,15.00
2022-10-20T11:58:01.285Z,15.20
2022-10-20T12:00:49.945Z,15.30
2022-10-20T12:03:45.835Z,15.30
2022-10-20T12:06:23.376Z,15.40
2022-10-20T12:09:37.882Z,15.50
2022-10-20T12:12:37.987Z,15.50
2022-10-20T12:15:22.443Z,15.40
2022-10-20T12:17:57.509Z,15.40
2022-10-20T12:20:29.166Z,15.50
2022-10-20T12:23:02.520Z,15.50
2022-10-20T12:25:38.018Z,15.50
2022-10-20T12:28:25.227Z,15.50
2022-10-20T12:31:02.898Z,15.50
2022-10-20T12:33:59.378Z,15.50
2022-10-20T12:36:40.208Z,15.50
2022-10-20T12:39:11.870Z,15.60
2022-10-20T12:41:56.160Z,15.60
2022-10-20T12:44:32.119Z,15.60
2022-10-20T12:47:07.274Z,15.60
2022-10-20T12:49:45.222Z,15.60
2022-10-20T12:52:23.696Z,15.60
2022-10-20T12:55:05.046Z,15.40
2022-10-20T12:57:42.857Z,15.30
2022-10-20T13:00:21.428Z,15.20
2022-10-20T13:02:57.472Z,15.20
2022-10-20T13:05:43.981Z,15.40
2022-10-20T13:08:18.839Z,15.60
2022-10-20T13:10:53.765Z,15.60
2022-10-20T13:13:25.502Z,15.70
2022-10-20T13:15:57.708Z,15.60
2022-10-20T13:18:34.069Z,15.50
2022-10-20T13:21:22.936Z,15.40
2022-10-20T13:24:00.959Z,15.40
2022-10-20T13:26:44.128Z,15.30
2022-10-20T13:29:35.484Z,15.20
2022-10-20T13:32:22.969Z,15.10
2022-10-20T13:35:20.326Z,15.10
2022-10-20T13:37:57.548Z,15.10
2022-10-20T13:43:57.768Z,15.00
2022-10-20T13:46:49.139Z,15.10
2022-10-20T13:49:58.766Z,15.30
2022-10-20T13:52:34.306Z,15.40
2022-10-20T13:55:08.233Z,15.40
2022-10-20T13:58:05.381Z,15.40
2022-10-20T14:00:37.262Z,15.40
2022-10-20T14:03:18.156Z,15.40
2022-10-20T14:05:49.869Z,15.40
2022-10-20T14:08:23.560Z,15.40
2022-10-20T14:11:04.510Z,15.40
2022-10-20T14:13:36.496Z,15.40
2022-10-20T14:16:29.041Z,15.40
2022-10-20T14:19:12.886Z,15.20
2022-10-20T14:21:49.202Z,15.20
2022-10-20T14:24:45.656Z,15.20
2022-10-20T14:27:24.527Z,15.10
2022-10-20T14:29:57.105Z,15.20
2022-10-20T14:32:31.173Z,15.20
2022-10-20T14:35:25.238Z,15.20
2022-10-20T14:38:15.229Z,15.10
2022-10-20T14:40:53.292Z,15.20
2022-10-20T14:43:47.296Z,15.10
2022-10-20T14:46:30.989Z,15.10
2022-10-20T14:49:03.381Z,15.10
2022-10-20T14:51:48.064Z,15.00
2022-10-20T14:54:19.799Z,15.00
2022-10-20T14:56:54.443Z,15.00
2022-10-20T14:59:27.599Z,15.00
2022-10-20T15:02:19.171Z,14.90
2022-10-20T15:04:54.011Z,14.90
2022-10-20T15:07:34.610Z,15.00
2022-10-20T15:10:09.592Z,14.90
2022-10-20T15:12:48.054Z,14.90
2022-10-20T15:15:27.817Z,14.80
2022-10-20T15:18:08.071Z,14.80
2022-10-20T15:20:41.995Z,16.10
2022-10-20T15:23:25.493Z,14.80
2022-10-20T15:26:05.661Z,14.70
2022-10-20T15:28:44.863Z,14.70
2022-10-20T15:31:29.524Z,14.60
2022-10-20T15:34:01.292Z,14.60
2022-10-20T15:36:33.893Z,14.50
2022-10-20T15:39:05.654Z,14.40
2022-10-20T15:41:37.889Z,14.30
2022-10-20T15:44:17.409Z,14.30
2022-10-20T15:46:53.357Z,14.20
2022-10-20T15:49:25.289Z,14.10
2022-10-20T15:51:57.035Z,14.10
2022-10-20T15:54:28.727Z,14.10
2022-10-20T15:57:00.447Z,13.90
2022-10-20T15:59:32.203Z,13.90
2022-10-20T16:02:03.949Z,13.80
2022-10-20T16:04:35.671Z,13.70
2022-10-20T16:07:07.369Z,13.60
2022-10-20T16:09:39.175Z,13.50
2022-10-20T16:12:11.126Z,13.50
2022-10-20T16:14:42.922Z,13.40
2022-10-20T16:17:14.685Z,13.30
2022-10-20T16:19:46.398Z,13.30
2022-10-20T16:22:18.196Z,13.20
2022-10-20T16:24:49.930Z,13.20
2022-10-20T16:27:22.167Z,13.10
2022-10-20T16:29:54.139Z,13.10
2022-10-20T16:32:25.956Z,13.10
2022-10-20T16:34:58.781Z,13.10
2022-10-20T16:37:32.041Z,13.00
2022-10-20T16:40:04.127Z,13.00
2022-10-20T16:42:35.820Z,12.90
2022-10-20T16:45:08.435Z,12.80
2022-10-20T16:47:40.355Z,12.80
2022-10-20T16:50:12.202Z,12.80
2022-10-20T16:52:43.973Z,12.70
2022-10-20T16:55:15.719Z,12.70
2022-10-20T16:57:47.456Z,12.70
2022-10-20T17:00:19.210Z,12.70
2022-10-20T17:02:52.941Z,12.70
2022-10-20T17:05:26.493Z,12.70
2022-10-20T17:07:58.547Z,12.70
2022-10-20T17:10:30.270Z,12.70
2022-10-20T17:13:01.971Z,12.60
2022-10-20T17:15:33.909Z,12.60
2022-10-20T17:18:05.814Z,12.60
2022-10-20T17:20:38.247Z,12.60
2022-10-20T17:23:09.986Z,12.50
2022-10-20T17:25:41.753Z,12.50
2022-10-20T17:28:13.497Z,12.50
2022-10-20T17:30:47.078Z,12.40
2022-10-20T17:33:18.785Z,12.40
2022-10-20T17:35:50.519Z,12.40
2022-10-20T17:38:23.143Z,12.40
2022-10-20T17:40:55.384Z,12.40
2022-10-20T17:43:27.940Z,12.40
2022-10-20T17:46:02.204Z,12.40
2022-10-20T17:48:35.531Z,12.40
2022-10-20T17:51:21.835Z,12.40
2022-10-20T17:53:56.689Z,12.40
2022-10-20T17:56:35.424Z,12.40
2022-10-20T17:59:09.328Z,12.40
2022-10-20T18:01:41.440Z,12.30
2022-10-20T18:04:15.898Z,12.30
2022-10-20T18:06:47.932Z,12.30
2022-10-20T18:09:19.687Z,12.20
2022-10-20T18:11:51.751Z,12.30
2022-10-20T18:14:23.492Z,12.20
2022-10-20T18:16:55.255Z,12.20
2022-10-20T18:19:27.236Z,12.20
2022-10-20T18:21:59.005Z,12.20
2022-10-20T18:24:30.824Z,12.10
2022-10-20T18:27:02.619Z,12.20
2022-10-20T18:29:34.530Z,12.10
2022-10-20T18:32:06.453Z,12.10
2022-10-20T18:34:38.984Z,12.10
2022-10-20T18:37:10.797Z,12.00
2022-10-20T18:39:42.713Z,12.00
2022-10-20T18:42:14.447Z,11.90
2022-10-20T18:44:46.278Z,11.90
2022-10-20T18:47:18.080Z,12.10
2022-10-20T18:49:49.806Z,11.90
2022-10-20T18:52:21.506Z,11.90
2022-10-20T18:54:53.455Z,11.80
2022-10-20T18:57:25.258Z,11.80
2022-10-20T18:59:57.000Z,11.80
2022-10-20T19:02:30.752Z,11.80
2022-10-20T19:05:03.948Z,11.70
2022-10-20T19:07:36.208Z,11.70
2022-10-20T19:10:08.605Z,11.70
2022-10-20T19:12:40.566Z,11.70
2022-10-20T19:15:12.449Z,11.70
2022-10-20T19:17:44.173Z,11.70
2022-10-20T19:20:16.018Z,11.70
2022-10-20T19:22:47.804Z,11.70
2022-10-20T19:25:19.630Z,11.60
2022-10-20T19:27:51.476Z,11.60
2022-10-20T19:33:00.776Z,11.60
2022-10-20T19:35:32.619Z,11.60
2022-10-20T19:38:04.403Z,11.60
2022-10-20T19:40:36.153Z,11.50
2022-10-20T19:43:07.923Z,11.50
2022-10-20T19:45:39.687Z,11.50
2022-10-20T19:48:11.439Z,11.50
2022-10-20T19:50:43.180Z,11.50
2022-10-20T19:53:14.895Z,11.50
2022-10-20T19:55:51.283Z,11.50
2022-10-20T19:58:23.645Z,11.50
2022-10-20T20:00:58.439Z,11.40
2022-10-20T20:03:30.662Z,11.40
2022-10-20T20:06:08.851Z,11.30
2022-10-20T20:08:40.641Z,11.30
2022-10-20T20:11:22.767Z,11.20
2022-10-20T20:14:00.126Z,11.20
2022-10-20T20:16:31.964Z,11.20
2022-10-20T20:19:04.070Z,11.20
2022-10-20T20:21:35.950Z,11.20
2022-10-20T20:24:07.796Z,11.20
2022-10-20T20:26:39.888Z,11.10
2022-10-20T20:29:11.964Z,11.10
2022-10-20T20:31:44.791Z,11.10
2022-10-20T20:34:16.657Z,11.20
2022-10-20T20:36:48.389Z,11.10
2022-10-20T20:39:20.105Z,11.20
2022-10-20T20:41:51.841Z,11.20
2022-10-20T20:47:00.194Z,11.20
2022-10-20T20:49:31.923Z,11.20
2022-10-20T20:52:03.938Z,11.20
2022-10-20T20:54:35.693Z,11.20
2022-10-20T20:57:07.412Z,11.10
2022-10-20T20:59:39.118Z,11.10
2022-10-20T21:02:10.977Z,11.10
2022-10-20T21:04:42.782Z,11.20
2022-10-20T21:07:14.528Z,11.20
2022-10-20T21:09:46.224Z,11.10
2022-10-20T21:12:17.953Z,11.10
2022-10-20T21:14:49.728Z,11.10
2022-10-20T21:17:21.553Z,11.10
2022-10-20T21:19:53.683Z,11.10
2022-10-20T21:22:25.420Z,11.10
2022-10-20T21:24:57.264Z,11.10
2022-10-20T21:27:29.151Z,11.10
2022-10-20T21:30:00.848Z,11.10
2022-10-20T21:32:32.550Z,11.00
2022-10-20T21:35:04.408Z,11.00
2022-10-20T21:37:36.113Z,11.00
2022-10-20T21:40:08.373Z,11.00
2022-10-20T21:42:40.395Z,11.00
2022-10-20T21:45:15.460Z,11.00
2022-10-20T21:47:54.843Z,11.00
2022-10-20T21:50:26.560Z,11.00
2022-10-20T21:52:58.269Z,11.00
2022-10-20T21:55:30.140Z,11.00
2022-10-20T21:58:01.902Z,11.10
2022-10-20T22:00:33.764Z,11.10
2022-10-20T22:03:05.521Z,11.10
2022-10-20T22:05:37.227Z,11.10
2022-10-20T22:08:09.018Z,11.20
2022-10-20T22:10:40.779Z,11.20
2022-10-20T22:13:12.662Z,11.20
2022-10-20T22:15:44.476Z,11.20
2022-10-20T22:18:16.271Z,11.20
2022-10-20T22:20:48.066Z,11.20
2022-10-20T22:23:19.960Z,11.20
2022-10-20T22:25:53.304Z,11.10
2022-10-20T22:28:25.674Z,11.10
2022-10-20T22:30:57.577Z,11.10
2022-10-20T22:33:29.365Z,11.10
2022-10-20T22:36:01.616Z,11.10
2022-10-20T22:38:33.456Z,11.10
2022-10-20T22:41:05.378Z,11.10
2022-10-20T22:43:37.190Z,11.10
2022-10-20T22:46:08.990Z,11.10
2022-10-20T22:48:40.791Z,11.10
2022-10-20T22:51:12.972Z,11.10
2022-10-20T22:53:44.933Z,11.10
2022-10-20T22:56:21.499Z,11.10
2022-10-20T22:58:54.405Z,11.10
2022-10-20T23:01:26.377Z,11.00
2022-10-20T23:03:58.287Z,11.00
2022-10-20T23:06:30.150Z,11.00
2022-10-20T23:09:02.052Z,11.00
2022-10-20T23:11:34.363Z,11.00
2022-10-20T23:14:06.153Z,11.00
2022-10-20T23:16:37.966Z,11.00
2022-10-20T23:19:09.754Z,11.10
2022-10-20T23:21:41.460Z,11.10
2022-10-20T23:24:13.143Z,11.10
2022-10-20T23:26:44.935Z,11.10
2022-10-20T23:29:16.700Z,11.10
2022-10-20T23:31:48.401Z,11.00
2022-10-20T23:34:20.216Z,11.10
2022-10-20T23:36:52.116Z,11.00
2022-10-20T23:39:24.040Z,11.10
2022-10-20T23:41:55.839Z,11.10
2022-10-20T23:44:27.579Z,11.10
2022-10-20T23:46:59.298Z,11.10
2022-10-20T23:49:31.175Z,11.10
2022-10-20T23:52:02.871Z,11.10
2022-10-20T23:54:34.598Z,11.10
2022-10-20T23:57:06.304Z,11.10
2022-10-20T23:59:37.989Z,11.10
